sensor_id;sensor_type;location;lat;lon;timestamp;pressure;altitude;pressure_sealevel;temperature;humidity
60019;BME280;45870;42.528;26.740;2023-07-31T00:00:24;99088.03;;;25.01;48.21
60019;BME280;45870;42.528;26.740;2023-07-31T00:02:51;99074.91;;;25.34;47.62
60019;BME280;45870;42.528;26.740;2023-07-31T00:05:17;99077.06;;;25.41;47.07
60019;BME280;45870;42.528;26.740;2023-07-31T00:07:43;99073.41;;;25.01;48.22
60019;BME280;45870;42.528;26.740;2023-07-31T00:10:08;99068.44;;;25.55;47.24
60019;BME280;45870;42.528;26.740;2023-07-31T00:12:34;99029.97;;;25.50;47.06
60019;BME280;45870;42.528;26.740;2023-07-31T00:15:00;99068.56;;;25.46;48.07
60019;BME280;45870;42.528;26.740;2023-07-31T00:17:26;99068.16;;;25.84;46.83
60019;BME280;45870;42.528;26.740;2023-07-31T00:19:52;99071.41;;;25.74;47.21
60019;BME280;45870;42.528;26.740;2023-07-31T00:22:17;99040.00;;;25.66;47.54
60019;BME280;45870;42.528;26.740;2023-07-31T00:24:43;99074.91;;;25.99;47.47
60019;BME280;45870;42.528;26.740;2023-07-31T00:27:08;99079.72;;;26.14;47.40
60019;BME280;45870;42.528;26.740;2023-07-31T00:29:34;99073.59;;;26.20;46.68
60019;BME280;45870;42.528;26.740;2023-07-31T00:32:00;99075.97;;;26.34;46.47
60019;BME280;45870;42.528;26.740;2023-07-31T00:34:26;99088.22;;;26.49;46.19
60019;BME280;45870;42.528;26.740;2023-07-31T00:36:52;99112.53;;;25.75;48.16
60019;BME280;45870;42.528;26.740;2023-07-31T00:39:17;99121.66;;;24.17;52.36
60019;BME280;45870;42.528;26.740;2023-07-31T00:41:43;99113.94;;;23.22;55.77
60019;BME280;45870;42.528;26.740;2023-07-31T00:44:08;99111.78;;;25.51;49.95
60019;BME280;45870;42.528;26.740;2023-07-31T00:46:34;99095.72;;;26.48;47.33
60019;BME280;45870;42.528;26.740;2023-07-31T00:49:00;99075.06;;;26.73;46.85
60019;BME280;45870;42.528;26.740;2023-07-31T00:51:25;99066.47;;;26.63;47.07
60019;BME280;45870;42.528;26.740;2023-07-31T00:53:51;99073.03;;;26.86;46.55
60019;BME280;45870;42.528;26.740;2023-07-31T00:56:19;99084.50;;;26.72;46.85
60019;BME280;45870;42.528;26.740;2023-07-31T00:58:45;99099.50;;;26.28;47.08
60019;BME280;45870;42.528;26.740;2023-07-31T01:01:11;99082.75;;;26.80;47.00
60019;BME280;45870;42.528;26.740;2023-07-31T01:03:36;99036.38;;;26.46;46.09
60019;BME280;45870;42.528;26.740;2023-07-31T01:09:04;99046.53;;;26.14;48.53
60019;BME280;45870;42.528;26.740;2023-07-31T01:11:37;99059.19;;;26.86;47.04
60019;BME280;45870;42.528;26.740;2023-07-31T01:14:04;99006.41;;;26.36;47.28
60019;BME280;45870;42.528;26.740;2023-07-31T01:16:30;99061.44;;;25.97;49.06
60019;BME280;45870;42.528;26.740;2023-07-31T01:18:55;99048.97;;;26.03;49.47
60019;BME280;45870;42.528;26.740;2023-07-31T01:24:21;98988.72;;;25.69;49.18
60019;BME280;45870;42.528;26.740;2023-07-31T01:26:53;99040.81;;;26.50;47.88
60019;BME280;45870;42.528;26.740;2023-07-31T01:32:01;99045.22;;;26.67;47.70
60019;BME280;45870;42.528;26.740;2023-07-31T01:34:28;99037.09;;;26.74;47.33
60019;BME280;45870;42.528;26.740;2023-07-31T01:36:55;99035.31;;;26.22;48.22
60019;BME280;45870;42.528;26.740;2023-07-31T01:39:22;99029.13;;;26.57;47.71
60019;BME280;45870;42.528;26.740;2023-07-31T01:41:47;99036.13;;;26.82;46.63
60019;BME280;45870;42.528;26.740;2023-07-31T01:44:13;99039.16;;;26.77;46.55
60019;BME280;45870;42.528;26.740;2023-07-31T01:46:39;99050.81;;;26.55;47.33
60019;BME280;45870;42.528;26.740;2023-07-31T01:49:06;99052.34;;;26.68;46.02
60019;BME280;45870;42.528;26.740;2023-07-31T01:51:31;99046.00;;;26.67;46.09
60019;BME280;45870;42.528;26.740;2023-07-31T01:54:01;99037.59;;;26.64;46.37
60019;BME280;45870;42.528;26.740;2023-07-31T01:56:26;99033.66;;;25.66;48.90
60019;BME280;45870;42.528;26.740;2023-07-31T01:58:52;99040.09;;;26.10;47.40
60019;BME280;45870;42.528;26.740;2023-07-31T02:01:18;99043.59;;;25.18;49.97
60019;BME280;45870;42.528;26.740;2023-07-31T02:03:43;99034.34;;;25.75;47.91
60019;BME280;45870;42.528;26.740;2023-07-31T02:06:09;99040.84;;;26.22;47.01
60019;BME280;45870;42.528;26.740;2023-07-31T02:08:35;99042.97;;;26.01;47.15
60019;BME280;45870;42.528;26.740;2023-07-31T02:11:00;99023.88;;;25.96;47.00
60019;BME280;45870;42.528;26.740;2023-07-31T02:13:26;99043.13;;;25.65;48.29
60019;BME280;45870;42.528;26.740;2023-07-31T02:15:51;99051.78;;;25.91;48.06
60019;BME280;45870;42.528;26.740;2023-07-31T02:18:19;99026.50;;;26.05;47.06
60019;BME280;45870;42.528;26.740;2023-07-31T02:20:51;99042.66;;;26.03;47.70
60019;BME280;45870;42.528;26.740;2023-07-31T02:23:18;99038.16;;;25.46;49.15
60019;BME280;45870;42.528;26.740;2023-07-31T02:25:44;99037.22;;;25.66;49.14
60019;BME280;45870;42.528;26.740;2023-07-31T02:28:10;99033.22;;;25.40;49.44
60019;BME280;45870;42.528;26.740;2023-07-31T02:30:36;99041.53;;;25.15;50.65
60019;BME280;45870;42.528;26.740;2023-07-31T02:33:02;99040.16;;;24.97;51.02
60019;BME280;45870;42.528;26.740;2023-07-31T02:35:27;99042.56;;;25.35;50.02
60019;BME280;45870;42.528;26.740;2023-07-31T02:37:53;99041.00;;;25.74;48.93
60019;BME280;45870;42.528;26.740;2023-07-31T02:40:19;99034.50;;;25.18;49.90
60019;BME280;45870;42.528;26.740;2023-07-31T02:42:44;99022.75;;;25.09;49.98
60019;BME280;45870;42.528;26.740;2023-07-31T02:45:10;99035.06;;;25.35;49.99
60019;BME280;45870;42.528;26.740;2023-07-31T02:47:35;99024.22;;;25.67;48.27
60019;BME280;45870;42.528;26.740;2023-07-31T02:50:02;98819.38;;;24.49;48.05
60019;BME280;45870;42.528;26.740;2023-07-31T02:52:28;99021.13;;;25.56;48.72
60019;BME280;45870;42.528;26.740;2023-07-31T02:54:54;99017.81;;;25.51;49.20
60019;BME280;45870;42.528;26.740;2023-07-31T02:57:20;99022.88;;;25.24;49.82
60019;BME280;45870;42.528;26.740;2023-07-31T02:59:45;99021.69;;;25.38;49.29
60019;BME280;45870;42.528;26.740;2023-07-31T03:02:11;99017.94;;;25.18;50.06
60019;BME280;45870;42.528;26.740;2023-07-31T03:04:38;99011.25;;;25.43;50.08
60019;BME280;45870;42.528;26.740;2023-07-31T03:07:04;99010.09;;;24.71;51.92
60019;BME280;45870;42.528;26.740;2023-07-31T03:09:30;99011.81;;;25.12;50.63
60019;BME280;45870;42.528;26.740;2023-07-31T03:11:55;99020.56;;;25.26;50.16
60019;BME280;45870;42.528;26.740;2023-07-31T03:14:21;99023.13;;;26.39;46.93
60019;BME280;45870;42.528;26.740;2023-07-31T03:16:47;99023.94;;;25.84;48.24
60019;BME280;45870;42.528;26.740;2023-07-31T03:19:13;98979.69;;;25.84;47.74
60019;BME280;45870;42.528;26.740;2023-07-31T03:21:38;99023.00;;;26.08;47.32
60019;BME280;45870;42.528;26.740;2023-07-31T03:24:04;98997.59;;;26.30;46.49
60019;BME280;45870;42.528;26.740;2023-07-31T03:26:31;99025.84;;;26.67;46.03
60019;BME280;45870;42.528;26.740;2023-07-31T03:28:57;99021.75;;;27.08;45.34
60019;BME280;45870;42.528;26.740;2023-07-31T03:31:23;98974.91;;;27.18;43.77
60019;BME280;45870;42.528;26.740;2023-07-31T03:33:48;99019.91;;;27.31;44.03
60019;BME280;45870;42.528;26.740;2023-07-31T03:36:14;99030.09;;;28.58;41.07
60019;BME280;45870;42.528;26.740;2023-07-31T03:38:39;99002.06;;;28.21;41.37
60019;BME280;45870;42.528;26.740;2023-07-31T03:41:05;98981.72;;;28.59;40.81
60019;BME280;45870;42.528;26.740;2023-07-31T03:43:32;98997.28;;;28.63;40.70
60019;BME280;45870;42.528;26.740;2023-07-31T03:46:00;99037.50;;;28.50;41.37
60019;BME280;45870;42.528;26.740;2023-07-31T03:48:25;99003.44;;;28.31;41.36
60019;BME280;45870;42.528;26.740;2023-07-31T03:50:51;99038.22;;;28.89;41.14
60019;BME280;45870;42.528;26.740;2023-07-31T03:53:17;99040.72;;;28.52;42.18
60019;BME280;45870;42.528;26.740;2023-07-31T03:55:42;99031.03;;;28.43;41.91
60019;BME280;45870;42.528;26.740;2023-07-31T03:58:08;99038.47;;;29.26;40.16
60019;BME280;45870;42.528;26.740;2023-07-31T04:00:34;99039.78;;;29.36;40.18
60019;BME280;45870;42.528;26.740;2023-07-31T04:03:00;99041.72;;;29.88;39.35
60019;BME280;45870;42.528;26.740;2023-07-31T04:05:25;99043.38;;;30.59;38.35
60019;BME280;45870;42.528;26.740;2023-07-31T04:07:51;99050.72;;;31.21;36.61
60019;BME280;45870;42.528;26.740;2023-07-31T04:10:17;99060.69;;;32.74;34.25
60019;BME280;45870;42.528;26.740;2023-07-31T04:12:45;99053.88;;;33.85;33.02
60019;BME280;45870;42.528;26.740;2023-07-31T04:15:10;99058.56;;;32.32;35.17
60019;BME280;45870;42.528;26.740;2023-07-31T04:17:36;99058.59;;;34.82;31.34
60019;BME280;45870;42.528;26.740;2023-07-31T04:20:01;99050.19;;;34.82;30.59
60019;BME280;45870;42.528;26.740;2023-07-31T04:22:27;99070.72;;;35.23;30.07
60019;BME280;45870;42.528;26.740;2023-07-31T04:24:53;99067.25;;;34.36;31.23
60019;BME280;45870;42.528;26.740;2023-07-31T04:27:19;99068.38;;;34.52;30.72
60019;BME280;45870;42.528;26.740;2023-07-31T04:29:44;99073.50;;;33.60;31.49
60019;BME280;45870;42.528;26.740;2023-07-31T04:32:12;99063.47;;;32.71;33.34
60019;BME280;45870;42.528;26.740;2023-07-31T04:34:37;99027.13;;;33.52;32.27
60019;BME280;45870;42.528;26.740;2023-07-31T04:37:03;99071.59;;;35.09;29.51
60019;BME280;45870;42.528;26.740;2023-07-31T04:39:29;99074.81;;;35.15;29.75
60019;BME280;45870;42.528;26.740;2023-07-31T04:41:54;99063.69;;;34.32;30.24
60019;BME280;45870;42.528;26.740;2023-07-31T04:44:20;99073.56;;;34.57;29.92
60019;BME280;45870;42.528;26.740;2023-07-31T04:46:46;99074.56;;;34.12;30.28
60019;BME280;45870;42.528;26.740;2023-07-31T04:49:12;99092.88;;;36.90;26.71
60019;BME280;45870;42.528;26.740;2023-07-31T04:51:37;99086.84;;;38.64;24.46
60019;BME280;45870;42.528;26.740;2023-07-31T04:54:03;99098.69;;;35.78;27.87
60019;BME280;45870;42.528;26.740;2023-07-31T04:56:28;99096.84;;;34.47;29.77
60019;BME280;45870;42.528;26.740;2023-07-31T04:58:54;99093.88;;;33.46;30.92
60019;BME280;45870;42.528;26.740;2023-07-31T05:01:20;99097.47;;;33.47;31.51
60019;BME280;45870;42.528;26.740;2023-07-31T05:03:46;99104.69;;;33.12;32.17
60019;BME280;45870;42.528;26.740;2023-07-31T05:06:11;99073.50;;;32.93;32.05
60019;BME280;45870;42.528;26.740;2023-07-31T05:08:41;99054.66;;;33.82;30.20
60019;BME280;45870;42.528;26.740;2023-07-31T05:11:08;99109.53;;;34.70;30.23
60019;BME280;45870;42.528;26.740;2023-07-31T05:13:34;99104.56;;;34.22;29.91
60019;BME280;45870;42.528;26.740;2023-07-31T05:15:59;99105.09;;;34.79;28.70
60019;BME280;45870;42.528;26.740;2023-07-31T05:18:25;99104.50;;;35.05;28.17
60019;BME280;45870;42.528;26.740;2023-07-31T05:20:50;99109.00;;;36.26;26.49
60019;BME280;45870;42.528;26.740;2023-07-31T05:23:16;99114.59;;;36.29;26.66
60019;BME280;45870;42.528;26.740;2023-07-31T05:25:42;99112.91;;;38.12;24.36
60019;BME280;45870;42.528;26.740;2023-07-31T05:28:07;99106.44;;;36.95;26.16
60019;BME280;45870;42.528;26.740;2023-07-31T05:30:33;99111.81;;;37.40;26.20
60019;BME280;45870;42.528;26.740;2023-07-31T05:32:59;99111.50;;;36.20;27.45
60019;BME280;45870;42.528;26.740;2023-07-31T05:35:24;99116.69;;;37.36;25.93
60019;BME280;45870;42.528;26.740;2023-07-31T05:37:50;99109.16;;;36.45;27.02
60019;BME280;45870;42.528;26.740;2023-07-31T05:40:16;99127.25;;;38.41;24.07
60019;BME280;45870;42.528;26.740;2023-07-31T05:42:41;99126.81;;;37.57;25.30
60019;BME280;45870;42.528;26.740;2023-07-31T05:45:08;99129.38;;;40.47;22.79
60019;BME280;45870;42.528;26.740;2023-07-31T05:47:34;99137.03;;;37.93;25.63
60019;BME280;45870;42.528;26.740;2023-07-31T05:49:59;99129.81;;;39.88;23.00
60019;BME280;45870;42.528;26.740;2023-07-31T05:52:25;99142.19;;;42.47;19.72
60019;BME280;45870;42.528;26.740;2023-07-31T05:54:51;99138.25;;;42.10;19.69
60019;BME280;45870;42.528;26.740;2023-07-31T05:57:16;99147.94;;;43.75;18.78
60019;BME280;45870;42.528;26.740;2023-07-31T05:59:42;99128.06;;;41.65;20.80
60019;BME280;45870;42.528;26.740;2023-07-31T06:02:08;99152.50;;;42.19;19.96
60019;BME280;45870;42.528;26.740;2023-07-31T06:04:33;99154.09;;;42.42;20.01
60019;BME280;45870;42.528;26.740;2023-07-31T06:07:00;99150.63;;;39.13;23.43
60019;BME280;45870;42.528;26.740;2023-07-31T06:09:26;99149.69;;;40.58;22.04
60019;BME280;45870;42.528;26.740;2023-07-31T06:11:51;99142.91;;;40.27;21.55
60019;BME280;45870;42.528;26.740;2023-07-31T06:14:17;99153.97;;;44.41;17.84
60019;BME280;45870;42.528;26.740;2023-07-31T06:16:44;99139.47;;;44.30;17.76
60019;BME280;45870;42.528;26.740;2023-07-31T06:19:10;99140.44;;;42.71;19.91
60019;BME280;45870;42.528;26.740;2023-07-31T06:21:36;99148.44;;;42.63;19.83
60019;BME280;45870;42.528;26.740;2023-07-31T06:24:05;99143.75;;;42.69;20.82
60019;BME280;45870;42.528;26.740;2023-07-31T06:26:31;99150.31;;;41.04;22.36
60019;BME280;45870;42.528;26.740;2023-07-31T06:28:57;99156.13;;;42.85;20.06
60019;BME280;45870;42.528;26.740;2023-07-31T06:31:22;99159.50;;;39.80;23.72
60019;BME280;45870;42.528;26.740;2023-07-31T06:33:55;99162.16;;;40.32;22.84
60019;BME280;45870;42.528;26.740;2023-07-31T06:36:21;99154.97;;;39.02;24.35
60019;BME280;45870;42.528;26.740;2023-07-31T06:38:46;99160.81;;;41.66;21.51
60019;BME280;45870;42.528;26.740;2023-07-31T06:41:12;99153.41;;;37.79;26.02
60019;BME280;45870;42.528;26.740;2023-07-31T06:43:38;99168.78;;;41.21;21.58
60019;BME280;45870;42.528;26.740;2023-07-31T06:46:07;99168.81;;;43.33;20.46
60019;BME280;45870;42.528;26.740;2023-07-31T06:48:33;99170.69;;;40.16;22.68
60019;BME280;45870;42.528;26.740;2023-07-31T06:51:00;99164.91;;;39.58;24.32
60019;BME280;45870;42.528;26.740;2023-07-31T06:53:26;99162.69;;;39.33;23.71
60019;BME280;45870;42.528;26.740;2023-07-31T06:55:52;99174.13;;;38.12;26.31
60019;BME280;45870;42.528;26.740;2023-07-31T06:58:17;99169.59;;;36.64;28.10
60019;BME280;45870;42.528;26.740;2023-07-31T07:00:43;99141.09;;;32.19;34.17
60019;BME280;45870;42.528;26.740;2023-07-31T07:03:09;99173.25;;;32.60;34.47
60019;BME280;45870;42.528;26.740;2023-07-31T07:05:41;99174.16;;;34.27;31.99
60019;BME280;45870;42.528;26.740;2023-07-31T07:08:07;99174.22;;;33.10;33.81
60019;BME280;45870;42.528;26.740;2023-07-31T07:10:33;99165.84;;;33.60;32.62
60019;BME280;45870;42.528;26.740;2023-07-31T07:12:58;99178.25;;;33.70;33.33
60019;BME280;45870;42.528;26.740;2023-07-31T07:15:24;99175.41;;;33.27;33.37
60019;BME280;45870;42.528;26.740;2023-07-31T07:17:50;99179.06;;;35.62;31.03
60019;BME280;45870;42.528;26.740;2023-07-31T07:20:16;99184.97;;;35.19;29.88
60019;BME280;45870;42.528;26.740;2023-07-31T07:22:42;99197.78;;;34.26;32.42
60019;BME280;45870;42.528;26.740;2023-07-31T07:25:10;99198.09;;;34.53;31.34
60019;BME280;45870;42.528;26.740;2023-07-31T07:27:36;99188.19;;;35.21;30.28
60019;BME280;45870;42.528;26.740;2023-07-31T07:30:01;99148.59;;;34.00;31.71
60019;BME280;45870;42.528;26.740;2023-07-31T07:32:27;99194.72;;;34.97;30.39
60019;BME280;45870;42.528;26.740;2023-07-31T07:34:53;99207.69;;;35.42;29.70
60019;BME280;45870;42.528;26.740;2023-07-31T07:37:19;99210.59;;;33.35;32.25
60019;BME280;45870;42.528;26.740;2023-07-31T07:39:45;99207.19;;;32.01;35.26
60019;BME280;45870;42.528;26.740;2023-07-31T07:42:13;99216.59;;;32.37;33.87
60019;BME280;45870;42.528;26.740;2023-07-31T07:44:38;99173.25;;;32.64;32.92
60019;BME280;45870;42.528;26.740;2023-07-31T07:47:04;99221.25;;;32.91;33.15
60019;BME280;45870;42.528;26.740;2023-07-31T07:49:33;99230.91;;;34.56;30.21
60019;BME280;45870;42.528;26.740;2023-07-31T07:51:59;99227.56;;;32.74;32.52
60019;BME280;45870;42.528;26.740;2023-07-31T07:54:25;99233.00;;;33.46;31.74
60019;BME280;45870;42.528;26.740;2023-07-31T07:56:50;99239.66;;;32.27;33.57
60019;BME280;45870;42.528;26.740;2023-07-31T07:59:16;99230.25;;;31.50;35.07
60019;BME280;45870;42.528;26.740;2023-07-31T08:01:42;99241.91;;;31.56;35.00
60019;BME280;45870;42.528;26.740;2023-07-31T08:04:08;99253.53;;;32.12;34.64
60019;BME280;45870;42.528;26.740;2023-07-31T08:06:34;99229.25;;;30.62;37.16
60019;BME280;45870;42.528;26.740;2023-07-31T08:08:59;99237.34;;;31.41;36.36
60019;BME280;45870;42.528;26.740;2023-07-31T08:11:30;99251.72;;;31.46;37.51
60019;BME280;45870;42.528;26.740;2023-07-31T08:13:56;99259.63;;;29.69;40.47
60019;BME280;45870;42.528;26.740;2023-07-31T08:16:22;99260.97;;;29.79;41.12
60019;BME280;45870;42.528;26.740;2023-07-31T08:18:47;99200.34;;;31.03;37.41
60019;BME280;45870;42.528;26.740;2023-07-31T08:21:14;99264.78;;;29.06;42.65
60019;BME280;45870;42.528;26.740;2023-07-31T08:23:40;99268.56;;;28.59;44.38
60019;BME280;45870;42.528;26.740;2023-07-31T08:26:06;99272.44;;;27.89;46.19
60019;BME280;45870;42.528;26.740;2023-07-31T08:28:32;99241.28;;;27.95;46.64
60019;BME280;45870;42.528;26.740;2023-07-31T08:30:58;99234.47;;;28.78;45.29
60019;BME280;45870;42.528;26.740;2023-07-31T08:33:23;99269.81;;;28.11;48.45
60019;BME280;45870;42.528;26.740;2023-07-31T08:35:49;99254.72;;;27.46;52.25
60019;BME280;45870;42.528;26.740;2023-07-31T08:38:15;99257.56;;;27.06;54.64
60019;BME280;45870;42.528;26.740;2023-07-31T08:40:41;99252.25;;;25.85;59.68
60019;BME280;45870;42.528;26.740;2023-07-31T08:43:08;99251.47;;;25.27;61.77
60019;BME280;45870;42.528;26.740;2023-07-31T08:45:34;99216.53;;;25.80;59.49
60019;BME280;45870;42.528;26.740;2023-07-31T08:48:00;99201.34;;;25.74;59.67
60019;BME280;45870;42.528;26.740;2023-07-31T08:50:26;99219.22;;;27.83;53.63
60019;BME280;45870;42.528;26.740;2023-07-31T08:52:53;99211.91;;;27.94;53.18
60019;BME280;45870;42.528;26.740;2023-07-31T08:55:19;99218.78;;;28.51;52.00
60019;BME280;45870;42.528;26.740;2023-07-31T08:57:51;99213.03;;;29.20;50.65
60019;BME280;45870;42.528;26.740;2023-07-31T09:00:18;99206.84;;;27.80;54.84
60019;BME280;45870;42.528;26.740;2023-07-31T09:02:57;99174.06;;;28.56;51.90
60019;BME280;45870;42.528;26.740;2023-07-31T09:05:26;99207.56;;;27.77;54.34
60019;BME280;45870;42.528;26.740;2023-07-31T09:07:51;99175.25;;;26.23;58.58
60019;BME280;45870;42.528;26.740;2023-07-31T09:10:18;99208.22;;;26.16;60.12
60019;BME280;45870;42.528;26.740;2023-07-31T09:12:44;99189.28;;;28.43;53.36
60019;BME280;45870;42.528;26.740;2023-07-31T09:15:11;99218.03;;;29.31;52.08
60019;BME280;45870;42.528;26.740;2023-07-31T09:17:37;99220.81;;;29.31;51.16
60019;BME280;45870;42.528;26.740;2023-07-31T09:22:43;99205.91;;;26.70;58.89
60019;BME280;45870;42.528;26.740;2023-07-31T09:25:18;99213.88;;;25.83;62.19
60019;BME280;45870;42.528;26.740;2023-07-31T09:28:00;99214.81;;;26.92;59.11
60019;BME280;45870;42.528;26.740;2023-07-31T09:30:26;99216.69;;;27.78;55.60
60019;BME280;45870;42.528;26.740;2023-07-31T09:33:03;99225.00;;;27.62;57.24
60019;BME280;45870;42.528;26.740;2023-07-31T09:35:30;99214.50;;;28.03;55.10
60019;BME280;45870;42.528;26.740;2023-07-31T09:38:05;99222.03;;;29.79;51.81
60019;BME280;45870;42.528;26.740;2023-07-31T09:40:33;99219.47;;;30.19;50.06
60019;BME280;45870;42.528;26.740;2023-07-31T09:43:07;99211.78;;;30.65;47.58
60019;BME280;45870;42.528;26.740;2023-07-31T09:45:37;99195.50;;;30.67;47.83
60019;BME280;45870;42.528;26.740;2023-07-31T09:48:08;99204.91;;;30.89;47.28
60019;BME280;45870;42.528;26.740;2023-07-31T09:50:37;99212.31;;;27.93;52.83
60019;BME280;45870;42.528;26.740;2023-07-31T09:53:04;99207.69;;;28.16;53.09
60019;BME280;45870;42.528;26.740;2023-07-31T09:55:30;99213.53;;;28.46;53.49
60019;BME280;45870;42.528;26.740;2023-07-31T09:57:57;99170.84;;;28.35;53.26
60019;BME280;45870;42.528;26.740;2023-07-31T10:00:24;99203.44;;;28.38;52.43
60019;BME280;45870;42.528;26.740;2023-07-31T10:02:54;99228.53;;;30.12;48.77
60019;BME280;45870;42.528;26.740;2023-07-31T10:05:23;99217.16;;;30.51;49.30
60019;BME280;45870;42.528;26.740;2023-07-31T10:07:54;99212.19;;;30.37;49.16
60019;BME280;45870;42.528;26.740;2023-07-31T10:10:21;99219.44;;;30.42;48.45
60019;BME280;45870;42.528;26.740;2023-07-31T10:12:52;99189.22;;;30.44;47.68
60019;BME280;45870;42.528;26.740;2023-07-31T10:15:19;99213.09;;;32.50;42.92
60019;BME280;45870;42.528;26.740;2023-07-31T10:17:47;99219.22;;;30.87;47.82
60019;BME280;45870;42.528;26.740;2023-07-31T10:20:15;99177.47;;;31.75;46.01
60019;BME280;45870;42.528;26.740;2023-07-31T10:22:45;99216.41;;;32.77;43.19
60019;BME280;45870;42.528;26.740;2023-07-31T10:25:12;99212.81;;;32.80;41.96
60019;BME280;45870;42.528;26.740;2023-07-31T10:27:41;99161.00;;;33.22;39.42
60019;BME280;45870;42.528;26.740;2023-07-31T10:30:12;99171.00;;;31.64;42.56
60019;BME280;45870;42.528;26.740;2023-07-31T10:32:41;99215.59;;;32.73;40.92
60019;BME280;45870;42.528;26.740;2023-07-31T10:35:08;99223.81;;;34.05;39.47
60019;BME280;45870;42.528;26.740;2023-07-31T10:37:39;99213.22;;;34.80;36.40
60019;BME280;45870;42.528;26.740;2023-07-31T10:40:15;99219.41;;;34.19;37.68
60019;BME280;45870;42.528;26.740;2023-07-31T10:42:52;99217.81;;;33.93;39.16
60019;BME280;45870;42.528;26.740;2023-07-31T10:45:26;99212.50;;;34.58;38.51
60019;BME280;45870;42.528;26.740;2023-07-31T10:48:04;99195.84;;;35.10;37.36
60019;BME280;45870;42.528;26.740;2023-07-31T10:50:37;99204.63;;;34.15;38.77
60019;BME280;45870;42.528;26.740;2023-07-31T10:53:03;99204.50;;;33.01;39.29
60019;BME280;45870;42.528;26.740;2023-07-31T10:55:42;99201.81;;;34.04;39.19
60019;BME280;45870;42.528;26.740;2023-07-31T10:58:12;99192.88;;;32.06;39.84
60019;BME280;45870;42.528;26.740;2023-07-31T11:00:40;99166.38;;;32.51;40.60
60019;BME280;45870;42.528;26.740;2023-07-31T11:03:09;99174.50;;;32.88;38.69
60019;BME280;45870;42.528;26.740;2023-07-31T11:05:45;99186.91;;;32.94;40.05
60019;BME280;45870;42.528;26.740;2023-07-31T11:10:47;99185.81;;;33.41;38.91
60019;BME280;45870;42.528;26.740;2023-07-31T11:13:14;99154.66;;;33.42;39.23
60019;BME280;45870;42.528;26.740;2023-07-31T11:15:40;99175.41;;;35.06;35.83
60019;BME280;45870;42.528;26.740;2023-07-31T11:18:06;99185.38;;;34.24;36.39
60019;BME280;45870;42.528;26.740;2023-07-31T11:20:34;99195.03;;;35.09;36.07
60019;BME280;45870;42.528;26.740;2023-07-31T11:23:06;99184.56;;;36.54;32.44
60019;BME280;45870;42.528;26.740;2023-07-31T11:25:33;99164.22;;;36.77;33.45
60019;BME280;45870;42.528;26.740;2023-07-31T11:28:12;99195.03;;;36.50;33.92
60019;BME280;45870;42.528;26.740;2023-07-31T11:30:39;99183.69;;;35.82;32.90
60019;BME280;45870;42.528;26.740;2023-07-31T11:33:07;99174.47;;;35.30;35.13
60019;BME280;45870;42.528;26.740;2023-07-31T11:35:35;99177.13;;;36.37;32.76
60019;BME280;45870;42.528;26.740;2023-07-31T11:38:02;99182.88;;;34.54;38.44
60019;BME280;45870;42.528;26.740;2023-07-31T11:40:28;99179.00;;;35.14;36.07
60019;BME280;45870;42.528;26.740;2023-07-31T11:42:58;99173.50;;;36.70;31.59
60019;BME280;45870;42.528;26.740;2023-07-31T11:45:26;99162.38;;;35.88;32.65
60019;BME280;45870;42.528;26.740;2023-07-31T11:47:54;99151.41;;;35.01;35.98
60019;BME280;45870;42.528;26.740;2023-07-31T11:50:20;99154.59;;;35.62;34.18
60019;BME280;45870;42.528;26.740;2023-07-31T11:52:48;99176.53;;;33.05;40.69
60019;BME280;45870;42.528;26.740;2023-07-31T11:55:16;99162.44;;;34.57;36.30
60019;BME280;45870;42.528;26.740;2023-07-31T11:57:43;99161.44;;;33.80;36.91
60019;BME280;45870;42.528;26.740;2023-07-31T12:00:12;99157.31;;;35.73;33.21
60019;BME280;45870;42.528;26.740;2023-07-31T12:02:40;99152.97;;;34.26;35.91
60019;BME280;45870;42.528;26.740;2023-07-31T12:05:10;99132.19;;;32.93;38.83
60019;BME280;45870;42.528;26.740;2023-07-31T12:07:51;99154.22;;;33.61;38.46
60019;BME280;45870;42.528;26.740;2023-07-31T12:10:31;99139.91;;;34.85;35.56
60019;BME280;45870;42.528;26.740;2023-07-31T12:13:03;99149.47;;;33.69;37.47
60019;BME280;45870;42.528;26.740;2023-07-31T12:15:39;99124.44;;;34.49;37.80
60019;BME280;45870;42.528;26.740;2023-07-31T12:18:07;99133.38;;;35.02;35.06
60019;BME280;45870;42.528;26.740;2023-07-31T12:20:33;99125.28;;;36.41;32.10
60019;BME280;45870;42.528;26.740;2023-07-31T12:22:59;99115.53;;;35.34;34.59
60019;BME280;45870;42.528;26.740;2023-07-31T12:25:29;99118.09;;;35.62;32.72
60019;BME280;45870;42.528;26.740;2023-07-31T12:27:55;99104.72;;;35.32;33.09
60019;BME280;45870;42.528;26.740;2023-07-31T12:32:55;99104.81;;;34.49;34.53
60019;BME280;45870;42.528;26.740;2023-07-31T12:35:21;99104.50;;;34.36;32.42
60019;BME280;45870;42.528;26.740;2023-07-31T12:37:46;99099.81;;;33.94;32.95
60019;BME280;45870;42.528;26.740;2023-07-31T12:40:12;99102.44;;;35.17;32.03
60019;BME280;45870;42.528;26.740;2023-07-31T12:42:38;99092.13;;;34.99;32.06
60019;BME280;45870;42.528;26.740;2023-07-31T12:45:04;99063.75;;;34.10;32.50
60019;BME280;45870;42.528;26.740;2023-07-31T12:47:30;99085.09;;;37.01;28.90
60019;BME280;45870;42.528;26.740;2023-07-31T12:49:55;99085.66;;;34.44;31.00
60019;BME280;45870;42.528;26.740;2023-07-31T12:52:21;99086.34;;;34.69;30.91
60019;BME280;45870;42.528;26.740;2023-07-31T12:54:46;99083.03;;;33.94;33.58
60019;BME280;45870;42.528;26.740;2023-07-31T12:57:12;99077.44;;;33.87;33.43
60019;BME280;45870;42.528;26.740;2023-07-31T12:59:38;99060.72;;;34.64;32.86
60019;BME280;45870;42.528;26.740;2023-07-31T13:02:03;99073.22;;;35.10;31.78
60019;BME280;45870;42.528;26.740;2023-07-31T13:04:29;99072.66;;;36.42;29.41